createdAt,value
2023-12-09T00:01:21.000Z,7.65
2023-12-09T00:03:48.769Z,7.65
2023-12-09T00:06:16.646Z,7.82
2023-12-09T00:08:45.473Z,7.07
2023-12-09T00:11:13.124Z,6.95
2023-12-09T00:13:40.707Z,6.40
2023-12-09T00:16:08.902Z,6.65
2023-12-09T00:18:37.998Z,6.53
2023-12-09T00:21:06.418Z,6.45
2023-12-09T00:23:34.065Z,6.13
2023-12-09T00:26:01.607Z,6.28
2023-12-09T00:28:29.194Z,6.95
2023-12-09T00:30:56.917Z,7.45
2023-12-09T00:33:24.823Z,6.72
2023-12-09T00:35:53.928Z,7.93
2023-12-09T00:38:21.603Z,7.18
2023-12-09T00:40:49.197Z,7.20
2023-12-09T00:43:16.735Z,6.85
2023-12-09T00:45:44.261Z,7.90
2023-12-09T00:48:11.938Z,7.07
2023-12-09T00:50:39.645Z,6.97
2023-12-09T00:53:08.648Z,6.65
2023-12-09T00:55:36.259Z,7.43
2023-12-09T00:58:03.821Z,7.13
2023-12-09T01:00:31.461Z,6.57
2023-12-09T01:02:59.183Z,6.75
2023-12-09T01:05:26.885Z,6.57
2023-12-09T01:07:54.517Z,6.85
2023-12-09T01:10:23.495Z,7.45
2023-12-09T01:12:51.202Z,6.95
2023-12-09T01:15:18.944Z,7.38
2023-12-09T01:17:46.668Z,7.50
2023-12-09T01:20:15.298Z,7.00
2023-12-09T01:22:42.877Z,6.95
2023-12-09T01:25:10.669Z,6.85
2023-12-09T01:27:39.669Z,6.72
2023-12-09T01:30:08.669Z,6.72
2023-12-09T01:32:36.331Z,7.15
2023-12-09T01:35:04.878Z,7.28
2023-12-09T01:37:32.519Z,6.57
2023-12-09T01:40:00.141Z,6.80
2023-12-09T01:42:27.976Z,6.57
2023-12-09T01:44:57.206Z,7.03
2023-12-09T01:47:25.028Z,7.15
2023-12-09T01:49:53.095Z,6.45
2023-12-09T01:52:20.927Z,7.78
2023-12-09T01:54:48.640Z,7.07
2023-12-09T01:57:16.532Z,8.27
2023-12-09T01:59:44.387Z,8.82
2023-12-09T02:02:13.396Z,9.60
2023-12-09T02:04:41.902Z,8.55
2023-12-09T02:07:09.615Z,9.48
2023-12-09T02:09:40.581Z,10.45
2023-12-09T02:12:17.058Z,10.85
2023-12-09T02:14:54.111Z,10.35
2023-12-09T02:17:28.329Z,8.48
2023-12-09T02:19:56.285Z,9.43
2023-12-09T02:22:24.031Z,11.32
2023-12-09T02:24:53.111Z,11.38
2023-12-09T02:27:28.784Z,10.93
2023-12-09T02:30:05.885Z,10.45
2023-12-09T02:32:36.590Z,10.85
2023-12-09T02:35:06.978Z,12.38
2023-12-09T02:37:36.496Z,11.27
2023-12-09T02:40:10.797Z,10.63
2023-12-09T02:42:39.683Z,11.23
2023-12-09T02:45:09.002Z,11.02
2023-12-09T02:47:36.750Z,11.75
2023-12-09T02:50:04.938Z,11.20
2023-12-09T02:52:32.538Z,10.15
2023-12-09T02:55:00.211Z,11.32
2023-12-09T02:57:29.167Z,11.05
2023-12-09T02:59:56.825Z,9.88
2023-12-09T03:02:24.515Z,10.75
2023-12-09T03:04:52.218Z,10.07
2023-12-09T03:07:21.574Z,9.30
2023-12-09T03:09:49.312Z,10.20
2023-12-09T03:12:17.095Z,10.68
2023-12-09T03:14:46.103Z,9.68
2023-12-09T03:17:13.869Z,9.43
2023-12-09T03:19:42.262Z,9.20
2023-12-09T03:22:10.103Z,9.20
2023-12-09T03:24:37.801Z,9.13
2023-12-09T03:27:05.989Z,9.13
2023-12-09T03:29:32.603Z,8.80
2023-12-09T03:32:01.548Z,8.68
2023-12-09T03:34:29.527Z,8.18
2023-12-09T03:36:57.196Z,9.27
2023-12-09T03:39:25.078Z,9.38
2023-12-09T03:41:52.877Z,8.23
2023-12-09T03:44:20.524Z,8.68
2023-12-09T03:46:48.223Z,8.30
2023-12-09T03:49:17.162Z,8.38
2023-12-09T03:51:44.779Z,8.13
2023-12-09T03:54:12.431Z,8.02
2023-12-09T03:56:40.030Z,8.65
2023-12-09T03:59:07.798Z,8.23
2023-12-09T04:01:35.516Z,9.55
2023-12-09T04:04:03.204Z,13.20
2023-12-09T04:06:33.416Z,10.02
2023-12-09T04:09:01.581Z,8.70
2023-12-09T04:11:29.217Z,7.68
2023-12-09T04:13:56.855Z,7.18
2023-12-09T04:16:24.531Z,6.95
2023-12-09T04:18:52.329Z,8.13
2023-12-09T04:21:20.109Z,7.35
2023-12-09T04:23:49.136Z,7.35
2023-12-09T04:26:18.051Z,8.13
2023-12-09T04:28:46.266Z,8.32
2023-12-09T04:31:14.005Z,9.15
2023-12-09T04:33:41.774Z,8.93
2023-12-09T04:36:10.094Z,7.80
2023-12-09T04:38:37.747Z,9.65
2023-12-09T04:41:07.081Z,9.13
2023-12-09T04:43:34.736Z,8.15
2023-12-09T04:46:02.352Z,9.13
2023-12-09T04:48:30.177Z,8.85
2023-12-09T04:50:57.853Z,8.25
2023-12-09T04:53:25.438Z,8.13
2023-12-09T04:55:53.028Z,8.52
2023-12-09T04:58:21.934Z,8.02
2023-12-09T05:00:49.515Z,8.48
2023-12-09T05:03:17.209Z,8.45
2023-12-09T05:05:44.940Z,7.70
2023-12-09T05:08:12.550Z,7.93
2023-12-09T05:10:40.193Z,7.93
2023-12-09T05:13:07.757Z,7.68
2023-12-09T05:15:36.752Z,8.25
2023-12-09T05:18:04.507Z,9.23
2023-12-09T05:20:32.163Z,9.00
2023-12-09T05:22:59.785Z,8.18
2023-12-09T05:25:27.344Z,8.25
2023-12-09T05:27:54.966Z,9.63
2023-12-09T05:30:23.376Z,7.93
2023-12-09T05:32:52.675Z,8.40
2023-12-09T05:35:20.284Z,8.35
2023-12-09T05:37:47.925Z,7.78
2023-12-09T05:40:16.014Z,8.43
2023-12-09T05:42:43.753Z,8.68
2023-12-09T05:45:12.205Z,7.82
2023-12-09T05:47:39.889Z,7.82
2023-12-09T05:50:11.045Z,7.72
2023-12-09T05:52:38.717Z,7.90
2023-12-09T05:55:07.203Z,9.13
2023-12-09T05:57:34.850Z,8.45
2023-12-09T06:00:02.593Z,8.27
2023-12-09T06:02:32.385Z,7.90
2023-12-09T06:04:59.930Z,7.75
2023-12-09T06:07:28.859Z,7.93
2023-12-09T06:09:57.040Z,8.10
2023-12-09T06:12:24.813Z,7.88
2023-12-09T06:14:52.916Z,8.05
2023-12-09T06:17:20.440Z,14.27
2023-12-09T06:19:48.123Z,12.75
2023-12-09T06:22:15.673Z,8.80
2023-12-09T06:24:46.128Z,6.95
2023-12-09T06:27:14.326Z,7.28
2023-12-09T06:29:41.968Z,7.28
2023-12-09T06:32:09.535Z,7.03
2023-12-09T06:34:37.214Z,7.45
2023-12-09T06:37:05.326Z,7.68
2023-12-09T06:39:33.031Z,7.88
2023-12-09T06:42:02.338Z,8.27
2023-12-09T06:44:30.025Z,8.07
2023-12-09T06:46:57.609Z,9.02
2023-12-09T06:49:25.286Z,8.10
2023-12-09T06:51:52.959Z,7.18
2023-12-09T06:54:20.671Z,7.65
2023-12-09T06:56:48.265Z,6.40
2023-12-09T06:59:17.150Z,7.82
2023-12-09T07:01:44.849Z,8.38
2023-12-09T07:04:13.681Z,6.97
2023-12-09T07:06:41.487Z,5.20
2023-12-09T07:09:09.567Z,5.20
2023-12-09T07:11:37.773Z,5.40
2023-12-09T07:14:05.355Z,5.85
2023-12-09T07:16:34.486Z,5.72
2023-12-09T07:19:02.474Z,5.47
2023-12-09T07:21:30.386Z,5.70
2023-12-09T07:23:58.324Z,6.97
2023-12-09T07:26:25.913Z,6.90
2023-12-09T07:28:53.492Z,6.00
2023-12-09T07:31:21.298Z,5.32
2023-12-09T07:33:50.358Z,4.45
2023-12-09T07:36:18.400Z,4.78
2023-12-09T07:38:45.948Z,5.00
2023-12-09T07:41:13.699Z,4.65
2023-12-09T07:43:41.283Z,4.55
2023-12-09T07:46:08.918Z,5.13
2023-12-09T07:48:36.660Z,4.88
2023-12-09T07:51:06.405Z,4.55
2023-12-09T07:53:34.024Z,5.13
2023-12-09T07:56:01.624Z,4.40
2023-12-09T07:58:29.174Z,4.80
2023-12-09T08:00:59.787Z,4.50
2023-12-09T08:03:27.791Z,4.18
2023-12-09T08:05:55.506Z,5.03
2023-12-09T08:08:24.630Z,5.10
2023-12-09T08:10:52.253Z,4.03
2023-12-09T08:13:19.908Z,5.05
2023-12-09T08:15:47.496Z,4.30
2023-12-09T08:18:15.168Z,3.55
2023-12-09T08:20:42.930Z,3.22
2023-12-09T08:23:10.577Z,4.35
2023-12-09T08:25:39.586Z,3.45
2023-12-09T08:28:08.202Z,3.25
2023-12-09T08:30:35.789Z,3.50
2023-12-09T08:33:04.743Z,3.28
2023-12-09T08:35:32.498Z,3.38
2023-12-09T08:38:00.214Z,3.33
2023-12-09T08:40:28.020Z,3.88
2023-12-09T08:42:56.953Z,3.80
2023-12-09T08:45:25.130Z,4.07
2023-12-09T08:47:53.363Z,3.92
2023-12-09T08:50:23.660Z,3.53
2023-12-09T08:52:53.801Z,3.60
2023-12-09T08:55:22.153Z,3.17
2023-12-09T08:57:50.454Z,3.38
2023-12-09T09:00:22.142Z,2.58
2023-12-09T09:02:50.692Z,2.05
2023-12-09T09:05:18.351Z,1.70
2023-12-09T09:07:46.234Z,1.80
2023-12-09T09:10:13.889Z,1.83
2023-12-09T09:12:41.610Z,2.30
2023-12-09T09:15:10.672Z,2.47
2023-12-09T09:17:40.694Z,2.30
2023-12-09T09:20:09.463Z,2.00
2023-12-09T09:22:37.525Z,1.98
2023-12-09T09:25:05.663Z,2.22
2023-12-09T09:27:33.406Z,1.90
2023-12-09T09:30:01.291Z,2.20
2023-12-09T09:32:29.404Z,1.67
2023-12-09T09:34:58.644Z,1.33
2023-12-09T09:37:26.315Z,1.25
2023-12-09T09:39:55.021Z,1.65
2023-12-09T09:42:31.935Z,1.80
2023-12-09T09:45:09.435Z,2.05
2023-12-09T09:47:38.941Z,1.52
2023-12-09T09:50:09.519Z,1.50
2023-12-09T09:52:38.054Z,1.40
2023-12-09T09:55:07.916Z,1.70
2023-12-09T09:57:36.191Z,2.00
2023-12-09T10:00:13.699Z,2.00
2023-12-09T10:02:43.711Z,2.15
2023-12-09T10:05:13.806Z,2.90
2023-12-09T10:07:41.659Z,2.63
2023-12-09T10:10:10.176Z,2.00
2023-12-09T10:12:38.267Z,2.67
2023-12-09T10:15:07.443Z,2.80
2023-12-09T10:17:35.675Z,2.30
2023-12-09T10:20:06.785Z,2.80
2023-12-09T10:22:37.592Z,2.03
2023-12-09T10:25:05.921Z,1.95
2023-12-09T10:27:34.864Z,2.25
2023-12-09T10:30:03.300Z,3.70
2023-12-09T10:32:31.318Z,4.97
2023-12-09T10:35:02.402Z,4.07
2023-12-09T10:37:32.881Z,4.03
2023-12-09T10:40:04.692Z,3.20
2023-12-09T10:42:32.940Z,3.45
2023-12-09T10:45:04.151Z,4.15
2023-12-09T10:47:32.014Z,3.50
2023-12-09T10:49:59.750Z,3.47
2023-12-09T10:52:27.636Z,3.05
2023-12-09T10:54:55.505Z,2.53
2023-12-09T10:57:25.681Z,2.70
2023-12-09T10:59:54.074Z,3.17
2023-12-09T11:02:23.285Z,2.85
2023-12-09T11:04:52.181Z,2.70
2023-12-09T11:07:20.409Z,3.83
2023-12-09T11:09:48.374Z,3.35
2023-12-09T11:12:29.469Z,3.45
2023-12-09T11:15:01.823Z,3.30
2023-12-09T11:17:36.588Z,2.53
2023-12-09T11:20:11.888Z,2.22
2023-12-09T11:22:48.915Z,1.80
2023-12-09T11:25:23.701Z,1.73
2023-12-09T11:27:52.374Z,2.40
2023-12-09T11:30:34.774Z,2.10
2023-12-09T11:33:04.321Z,2.30
2023-12-09T11:35:34.204Z,2.95
2023-12-09T11:38:05.540Z,2.17
2023-12-09T11:40:34.221Z,1.92
2023-12-09T11:43:04.381Z,1.25
2023-12-09T11:45:32.095Z,1.65
2023-12-09T11:48:01.607Z,1.65
2023-12-09T11:50:30.131Z,2.03
2023-12-09T11:52:57.816Z,1.80
2023-12-09T11:55:26.842Z,1.85
2023-12-09T11:57:54.515Z,1.70
2023-12-09T12:00:22.590Z,1.67
2023-12-09T12:02:50.365Z,2.15
2023-12-09T12:05:18.070Z,2.40
2023-12-09T12:07:46.724Z,1.40
2023-12-09T12:10:15.620Z,0.88
2023-12-09T12:12:45.663Z,0.77
2023-12-09T12:15:14.392Z,1.00
2023-12-09T12:17:43.197Z,1.15
2023-12-09T12:20:13.258Z,1.05
2023-12-09T12:22:41.472Z,1.08
2023-12-09T12:25:10.622Z,1.45
2023-12-09T12:27:43.915Z,1.17
2023-12-09T12:30:14.226Z,1.13
2023-12-09T12:32:42.100Z,0.88
2023-12-09T12:35:10.596Z,1.17
2023-12-09T12:37:38.484Z,1.35
2023-12-09T12:40:07.548Z,1.38
2023-12-09T12:42:35.452Z,1.23
2023-12-09T12:45:05.116Z,1.33
2023-12-09T12:47:34.588Z,1.25
2023-12-09T12:50:02.297Z,1.80
2023-12-09T12:52:30.411Z,0.90
2023-12-09T12:54:59.066Z,1.10
2023-12-09T12:57:26.852Z,1.25
2023-12-09T12:59:58.868Z,1.20
2023-12-09T13:02:30.313Z,1.20
2023-12-09T13:04:59.578Z,1.77
2023-12-09T13:07:27.404Z,1.70
2023-12-09T13:09:55.145Z,1.17
2023-12-09T13:12:22.909Z,1.27
2023-12-09T13:14:50.647Z,1.00
2023-12-09T13:17:18.393Z,1.40
2023-12-09T13:19:46.382Z,1.30
2023-12-09T13:22:15.789Z,1.40
2023-12-09T13:24:43.509Z,6.22
2023-12-09T13:27:11.437Z,8.68
2023-12-09T13:29:39.273Z,2.97
2023-12-09T13:32:07.435Z,1.70
2023-12-09T13:34:35.239Z,2.30
2023-12-09T13:37:03.037Z,2.28
2023-12-09T13:39:32.334Z,1.33
2023-12-09T13:42:00.122Z,1.35
2023-12-09T13:44:27.862Z,2.17
2023-12-09T13:46:55.515Z,2.55
2023-12-09T13:49:23.341Z,3.10
2023-12-09T13:51:51.411Z,2.95
2023-12-09T13:54:21.247Z,3.03
2023-12-09T13:56:50.430Z,2.30
2023-12-09T13:59:18.279Z,2.75
2023-12-09T14:01:46.677Z,3.05
2023-12-09T14:04:14.476Z,4.82
2023-12-09T14:06:41.481Z,3.08
2023-12-09T14:09:10.024Z,5.07
2023-12-09T14:11:39.663Z,3.70
2023-12-09T14:14:08.750Z,1.85
2023-12-09T14:16:37.362Z,1.67
2023-12-09T14:19:05.487Z,2.50
2023-12-09T14:21:34.109Z,1.38
2023-12-09T14:24:01.928Z,0.90
2023-12-09T14:26:30.542Z,1.15
2023-12-09T14:28:58.847Z,1.30
2023-12-09T14:31:27.865Z,0.90
2023-12-09T14:33:55.915Z,0.98
2023-12-09T14:36:24.170Z,0.50
2023-12-09T14:38:52.022Z,0.50
2023-12-09T14:41:19.929Z,0.40
2023-12-09T14:43:49.363Z,0.20
2023-12-09T14:46:18.881Z,0.20
2023-12-09T14:48:48.109Z,0.35
2023-12-09T14:51:15.923Z,0.60
2023-12-09T14:53:43.601Z,0.70
2023-12-09T14:56:11.326Z,1.30
2023-12-09T14:58:39.242Z,0.50
2023-12-09T15:01:07.243Z,0.40
2023-12-09T15:03:35.239Z,1.95
2023-12-09T15:06:05.696Z,2.15
2023-12-09T15:08:33.522Z,0.63
2023-12-09T15:11:01.274Z,0.40
2023-12-09T15:13:28.981Z,1.08
2023-12-09T15:15:56.941Z,1.70
2023-12-09T15:18:24.851Z,1.13
2023-12-09T15:20:52.770Z,0.80
2023-12-09T15:23:22.319Z,1.10
2023-12-09T15:25:50.537Z,1.00
2023-12-09T15:28:18.906Z,0.90
2023-12-09T15:30:48.174Z,0.88
2023-12-09T15:33:16.103Z,1.30
2023-12-09T15:35:43.990Z,1.40
2023-12-09T15:38:12.288Z,1.27
2023-12-09T15:40:41.372Z,1.27
2023-12-09T15:43:09.320Z,2.50
2023-12-09T15:45:37.140Z,2.08
2023-12-09T15:48:05.735Z,1.60
2023-12-09T15:50:33.480Z,2.20
2023-12-09T15:53:01.243Z,1.70
2023-12-09T15:55:30.652Z,3.13
2023-12-09T15:58:00.656Z,1.70
2023-12-09T16:00:28.717Z,1.83
2023-12-09T16:02:56.774Z,1.42
2023-12-09T16:05:24.845Z,1.48
2023-12-09T16:07:52.903Z,1.50
2023-12-09T16:10:20.757Z,2.45
2023-12-09T16:12:48.512Z,2.90
2023-12-09T16:15:18.856Z,1.20
2023-12-09T16:17:48.089Z,1.02
2023-12-09T16:20:16.667Z,1.13
2023-12-09T16:22:44.715Z,1.10
2023-12-09T16:25:12.485Z,2.38
2023-12-09T16:27:40.316Z,1.67
2023-12-09T16:30:08.995Z,1.55
2023-12-09T16:32:38.275Z,4.35
2023-12-09T16:35:06.630Z,1.40
2023-12-09T16:37:35.210Z,1.65
2023-12-09T16:40:02.974Z,1.38
2023-12-09T16:42:30.988Z,1.13
2023-12-09T16:44:58.914Z,1.67
2023-12-09T16:47:28.331Z,2.53
2023-12-09T16:49:57.435Z,3.22
2023-12-09T16:52:25.465Z,2.42
2023-12-09T16:54:53.389Z,2.55
2023-12-09T16:57:21.178Z,2.38
2023-12-09T16:59:48.960Z,2.95
2023-12-09T17:02:16.667Z,1.77
2023-12-09T17:04:44.502Z,3.60
2023-12-09T17:07:13.656Z,2.50
2023-12-09T17:09:41.577Z,1.85
2023-12-09T17:12:10.490Z,3.28
2023-12-09T17:14:38.314Z,1.60
2023-12-09T17:17:06.533Z,2.40
2023-12-09T17:19:34.291Z,2.00
2023-12-09T17:22:02.433Z,4.00
2023-12-09T17:24:31.670Z,2.45
2023-12-09T17:26:59.620Z,2.30
2023-12-09T17:29:27.907Z,1.38
2023-12-09T17:31:55.633Z,1.10
2023-12-09T17:34:23.434Z,1.10
2023-12-09T17:36:51.748Z,2.30
2023-12-09T17:39:19.612Z,2.22
2023-12-09T17:41:48.648Z,1.70
2023-12-09T17:44:16.370Z,1.27
2023-12-09T17:46:44.188Z,1.38
2023-12-09T17:49:11.986Z,1.40
2023-12-09T17:51:39.801Z,1.50
2023-12-09T17:54:07.812Z,1.45
2023-12-09T17:56:36.069Z,2.15
2023-12-09T17:59:05.121Z,2.60
2023-12-09T18:01:33.172Z,5.80
2023-12-09T18:04:01.353Z,7.30
2023-12-09T18:06:29.954Z,6.47
2023-12-09T18:08:58.190Z,6.40
2023-12-09T18:11:25.856Z,8.73
2023-12-09T18:13:53.553Z,12.60
2023-12-09T18:16:23.058Z,21.35
2023-12-09T18:18:50.974Z,7.75
2023-12-09T18:21:18.746Z,7.50
2023-12-09T18:23:46.589Z,6.07
2023-12-09T18:26:15.347Z,5.97
2023-12-09T18:28:44.913Z,4.80
2023-12-09T18:31:12.868Z,3.78
2023-12-09T18:33:42.497Z,3.28
2023-12-09T18:36:10.887Z,2.90
2023-12-09T18:38:38.675Z,2.33
2023-12-09T18:41:06.956Z,2.58
2023-12-09T18:43:34.691Z,3.42
2023-12-09T18:46:02.501Z,3.50
2023-12-09T18:48:30.499Z,3.50
2023-12-09T18:51:01.067Z,5.20
2023-12-09T18:53:28.794Z,5.55
2023-12-09T18:55:56.571Z,6.63
2023-12-09T18:58:24.493Z,6.18
2023-12-09T19:00:58.978Z,7.18
2023-12-09T19:03:32.958Z,5.80
2023-12-09T19:06:02.471Z,4.80
2023-12-09T19:08:30.258Z,3.22
2023-12-09T19:10:58.019Z,3.30
2023-12-09T19:13:25.696Z,4.30
2023-12-09T19:15:53.627Z,3.58
2023-12-09T19:18:22.456Z,3.17
2023-12-09T19:20:50.451Z,4.20
2023-12-09T19:23:19.515Z,4.13
2023-12-09T19:25:47.564Z,2.92
2023-12-09T19:28:15.697Z,2.30
2023-12-09T19:30:43.553Z,0.93
2023-12-09T19:33:11.449Z,0.70
2023-12-09T19:35:39.234Z,0.88
2023-12-09T19:38:06.972Z,0.50
2023-12-09T19:40:36.488Z,0.30
2023-12-09T19:43:04.316Z,0.20
2023-12-09T19:45:34.404Z,0.28
2023-12-09T19:48:02.250Z,0.10
2023-12-09T19:50:31.229Z,0.40
2023-12-09T19:53:00.557Z,0.30
2023-12-09T19:55:28.255Z,0.20
2023-12-09T19:57:58.189Z,0.22
2023-12-09T20:00:25.969Z,0.20
2023-12-09T20:02:53.851Z,0.20
2023-12-09T20:05:23.027Z,0.22
2023-12-09T20:07:50.741Z,0.28
2023-12-09T20:10:18.450Z,0.30
2023-12-09T20:12:46.265Z,0.10
2023-12-09T20:15:16.095Z,0.80
2023-12-09T20:17:43.924Z,0.20
2023-12-09T20:20:12.538Z,0.30
2023-12-09T20:22:40.469Z,0.30
2023-12-09T20:25:08.765Z,0.30
2023-12-09T20:27:36.943Z,0.30
2023-12-09T20:30:05.504Z,0.30
2023-12-09T20:32:34.808Z,0.10
2023-12-09T20:35:02.594Z,0.20
2023-12-09T20:37:30.309Z,0.10
2023-12-09T20:39:58.625Z,0.30
2023-12-09T20:42:26.661Z,0.30
2023-12-09T20:44:54.864Z,0.10
2023-12-09T20:47:22.566Z,0.00
2023-12-09T20:49:51.925Z,0.10
2023-12-09T20:52:20.312Z,0.10
2023-12-09T20:54:48.304Z,0.10
2023-12-09T20:57:16.126Z,0.00
2023-12-09T20:59:44.203Z,0.10
2023-12-09T21:02:12.117Z,0.10
2023-12-09T21:04:44.625Z,0.10
2023-12-09T21:07:13.799Z,0.50
2023-12-09T21:09:41.650Z,0.10
2023-12-09T21:12:10.236Z,0.00
2023-12-09T21:14:39.074Z,0.10
2023-12-09T21:17:06.788Z,0.47
2023-12-09T21:19:36.040Z,0.40
2023-12-09T21:22:04.814Z,0.20
2023-12-09T21:24:34.108Z,0.20
2023-12-09T21:27:01.883Z,0.20
2023-12-09T21:29:29.671Z,0.30
2023-12-09T21:31:57.466Z,0.30
2023-12-09T21:34:25.308Z,0.32
2023-12-09T21:36:53.152Z,0.30
2023-12-09T21:39:21.038Z,0.40
2023-12-09T21:41:50.200Z,0.20
2023-12-09T21:44:18.416Z,0.40
2023-12-09T21:46:46.067Z,0.10
2023-12-09T21:49:14.439Z,0.40
2023-12-09T21:51:42.341Z,0.70
2023-12-09T21:54:10.525Z,0.30
2023-12-09T21:56:38.227Z,0.20
2023-12-09T21:59:07.393Z,0.32
2023-12-09T22:01:36.596Z,0.30
2023-12-09T22:04:05.376Z,0.65
2023-12-09T22:06:33.316Z,0.55
2023-12-09T22:09:01.034Z,0.55
2023-12-09T22:11:28.811Z,0.40
2023-12-09T22:13:56.754Z,0.40
2023-12-09T22:16:25.862Z,0.50
2023-12-09T22:18:53.741Z,0.65
2023-12-09T22:21:21.807Z,0.55
2023-12-09T22:23:49.610Z,0.50
2023-12-09T22:26:17.333Z,0.40
2023-12-09T22:28:45.000Z,0.55
2023-12-09T22:31:13.414Z,0.50
2023-12-09T22:33:42.662Z,0.60
2023-12-09T22:36:11.508Z,0.52
2023-12-09T22:38:39.322Z,1.00
2023-12-09T22:41:07.292Z,1.00
2023-12-09T22:43:35.160Z,0.77
2023-12-09T22:46:02.863Z,0.88
2023-12-09T22:48:30.822Z,0.80
2023-12-09T22:50:59.927Z,1.10
2023-12-09T22:53:27.670Z,0.70
2023-12-09T22:56:11.989Z,0.98
2023-12-09T22:58:41.709Z,1.40
2023-12-09T23:01:09.528Z,1.33
2023-12-09T23:03:37.308Z,1.60
2023-12-09T23:06:07.127Z,0.82
2023-12-09T23:08:37.934Z,0.93
2023-12-09T23:11:07.745Z,1.30
2023-12-09T23:13:35.479Z,1.60
2023-12-09T23:16:03.443Z,1.50
2023-12-09T23:18:31.334Z,1.75
2023-12-09T23:20:59.062Z,1.35
2023-12-09T23:23:28.130Z,1.17
2023-12-09T23:25:55.827Z,1.65
2023-12-09T23:28:23.759Z,1.50
2023-12-09T23:30:51.788Z,1.70
2023-12-09T23:33:20.132Z,1.73
2023-12-09T23:35:47.995Z,2.03
2023-12-09T23:38:15.865Z,2.17
2023-12-09T23:40:45.068Z,1.75
2023-12-09T23:43:13.893Z,1.65
2023-12-09T23:45:41.671Z,1.90
2023-12-09T23:48:09.631Z,2.40
2023-12-09T23:50:37.401Z,1.95
2023-12-09T23:53:05.117Z,2.13
2023-12-09T23:55:32.867Z,2.33
2023-12-09T23:58:01.941Z,2.05
